Startpagina
METAR-TAF:

METAR-TAF

Vliegvelden :

Geilenkirchen, Duitsland

breedte: 50-57-39N, lengte: 006-2-33E, hoogte: 90 m

Actueel weer

Dit bericht is 41 minuten geleden gemaakt, om 04:50 UTC
Wind 5 kt uit het zuidzuidwesten
Temperatuur 14°C
Vochtigheid 82%
Druk 1014 hPa
Zicht 10 km of meer
geen wolken onder 1500 m en geen cumulonimbus

METAR: ETNG 190450Z 21005KT CAVOK 14/11 Q1014 NOSIG

Tijdstip: 07:31 (05:31 UTC)

Verwachting

Dit bericht is 3 uur en het 31 minuten geleden gemaakt, om 02:00 UTC
Verwachting geldig van 19 om 03 UTC tot 19 om 18 UTC
Wind 5 kt uit het zuidwesten
Zicht 10 km of meer
geen wolken onder 1500 m en geen cumulonimbus
Wijzigt naar
van 19 om 07 UTC tot 19 om 09 UTC
Wind 12 kt uit het westzuidwesten met uitschieters tot 22 kt
Verspreide wolken op 3000 ft
Wijzigt naar
van 19 om 17 UTC tot 19 om 18 UTC
Wind 7 kt uit het westzuidwesten
Zicht 10 km of meer
geen wolken onder 1500 m en geen cumulonimbus

TAF: ETNG 190200Z 1903/1918 22005KT CAVOK BECMG 1907/1909 24012G22KT SCT030 BECMG 1917/1918 25007KT CAVOK

Waarnemingen en weersverwachtingen van meer dan 4000 vliegvelden (METAR en TAF).

De beschikbare stations zijn de gele en rode punten op de kaart.

Ga met uw muis naar het station om de naam te zien.

Klik dan om waarnemingen en weersverwachtingen te zien.

kaart wijzigen: klik op de groene knoppen met een zwart kruis om in te zoomen, op de groene knop met een streepje om uit te zoomen of op de groene pijlen voor aangrenzende kaarten.


METAR-TAF: